Terminal Aerodrome Forecast
Issued by NWS

Home | Current Version | Previous Version | Text Only | Print | Product List | Glossary On
Versions: 1 2 3 4 5 6 7 8 9 10 11 12 13 14 15 16 17
468
FTUS42 KGSP 190526
TAFGMU
TAF
KGMU 190526Z 1906/2006 03003KT P6SM BKN250
     FM191500 06007KT P6SM BKN080
     FM192000 13004KT P6SM BKN070 PROB30 2003/2005 4SM -SHRA OVC025
     FM200500 08004KT 5SM -SHRA OVC035=

USA.gov is the U.S. government's official web portal to all federal, state and local government web resources and services.